createdAt,value
2019-02-24T00:02:10.055Z,48.10
2019-02-24T00:04:43.492Z,48.60
2019-02-24T00:07:16.925Z,48.80
2019-02-24T00:09:50.365Z,48.70
2019-02-24T00:12:23.804Z,48.90
2019-02-24T00:14:57.256Z,49.00
2019-02-24T00:17:30.681Z,49.00
2019-02-24T00:20:05.166Z,49.10
2019-02-24T00:22:38.593Z,49.10
2019-02-24T00:25:12.036Z,49.10
2019-02-24T00:27:45.457Z,49.30
2019-02-24T00:30:18.917Z,49.40
2019-02-24T00:32:52.346Z,48.80
2019-02-24T00:35:25.788Z,49.40
2019-02-24T00:37:59.225Z,49.50
2019-02-24T00:40:32.661Z,49.70
2019-02-24T00:43:06.085Z,49.90
2019-02-24T00:45:39.533Z,49.80
2019-02-24T00:48:12.997Z,49.80
2019-02-24T00:50:46.440Z,50.00
2019-02-24T00:53:19.879Z,50.00
2019-02-24T00:55:53.317Z,50.60
2019-02-24T00:58:26.741Z,50.00
2019-02-24T01:01:00.209Z,49.90
2019-02-24T01:03:33.645Z,49.70
2019-02-24T01:06:07.081Z,49.70
2019-02-24T01:08:40.505Z,49.60
2019-02-24T01:11:13.976Z,49.70
2019-02-24T01:13:47.415Z,49.80
2019-02-24T01:16:20.855Z,49.90
2019-02-24T01:18:54.285Z,49.90
2019-02-24T01:21:27.749Z,50.00
2019-02-24T01:24:01.186Z,50.60
2019-02-24T01:26:34.646Z,50.20
2019-02-24T01:29:08.081Z,50.30
2019-02-24T01:31:41.534Z,50.20
2019-02-24T01:34:14.965Z,50.30
2019-02-24T01:36:48.421Z,50.30
2019-02-24T01:39:21.849Z,49.90
2019-02-24T01:41:55.285Z,50.30
2019-02-24T01:44:29.560Z,50.40
2019-02-24T01:47:03.008Z,49.90
2019-02-24T01:49:36.438Z,50.60
2019-02-24T01:52:09.873Z,50.60
2019-02-24T01:54:43.297Z,50.70
2019-02-24T01:57:16.744Z,50.60
2019-02-24T01:59:50.169Z,50.70
2019-02-24T02:02:23.629Z,50.70
2019-02-24T02:04:58.529Z,50.60
2019-02-24T02:07:32.180Z,50.70
2019-02-24T02:10:06.377Z,50.90
2019-02-24T02:12:39.816Z,50.90
2019-02-24T02:15:13.317Z,50.90
2019-02-24T02:17:46.759Z,50.80
2019-02-24T02:20:20.184Z,50.70
2019-02-24T02:22:53.635Z,50.70
2019-02-24T02:25:27.058Z,50.70
2019-02-24T02:28:00.496Z,50.70
2019-02-24T02:30:33.935Z,50.70
2019-02-24T02:33:07.365Z,50.80
2019-02-24T02:35:40.791Z,51.00
2019-02-24T02:38:14.251Z,51.10
2019-02-24T02:40:47.686Z,51.00
2019-02-24T02:43:21.132Z,51.20
2019-02-24T02:45:54.558Z,51.30
2019-02-24T02:48:28.003Z,51.20
2019-02-24T02:51:01.420Z,51.40
2019-02-24T02:53:34.876Z,51.40
2019-02-24T02:56:08.317Z,51.30
2019-02-24T02:58:41.748Z,51.40
2019-02-24T03:01:15.196Z,51.40
2019-02-24T03:03:48.700Z,51.50
2019-02-24T03:06:32.288Z,51.50
2019-02-24T03:09:07.437Z,51.60
2019-02-24T03:11:40.917Z,51.50
2019-02-24T03:14:14.377Z,51.70
2019-02-24T03:16:47.801Z,51.70
2019-02-24T03:19:21.254Z,51.60
2019-02-24T03:21:54.669Z,51.70
2019-02-24T03:24:28.125Z,51.70
2019-02-24T03:27:01.543Z,51.70
2019-02-24T03:29:35.009Z,51.80
2019-02-24T03:32:08.505Z,51.90
2019-02-24T03:34:41.940Z,52.00
2019-02-24T03:37:15.369Z,52.20
2019-02-24T03:39:48.808Z,52.40
2019-02-24T03:42:22.240Z,52.70
2019-02-24T03:44:55.770Z,52.80
2019-02-24T03:47:29.195Z,53.00
2019-02-24T03:50:02.720Z,53.10
2019-02-24T03:52:36.219Z,53.20
2019-02-24T03:55:09.663Z,53.20
2019-02-24T03:57:43.092Z,53.10
2019-02-24T04:00:16.533Z,53.10
2019-02-24T04:02:49.956Z,53.20
2019-02-24T04:05:23.403Z,53.30
2019-02-24T04:07:56.825Z,53.40
2019-02-24T04:10:30.267Z,53.50
2019-02-24T04:13:03.695Z,53.50
2019-02-24T04:15:37.200Z,53.50
2019-02-24T04:18:10.628Z,53.60
2019-02-24T04:20:44.070Z,53.60
2019-02-24T04:23:17.492Z,53.60
2019-02-24T04:25:50.940Z,53.30
2019-02-24T04:28:24.373Z,53.40
2019-02-24T04:30:57.809Z,53.50
2019-02-24T04:33:31.236Z,53.60
2019-02-24T04:36:04.752Z,53.50
2019-02-24T04:38:38.177Z,53.70
2019-02-24T04:41:11.640Z,53.70
2019-02-24T04:43:45.074Z,53.60
2019-02-24T04:46:18.520Z,53.60
2019-02-24T04:48:51.951Z,53.60
2019-02-24T04:51:25.416Z,53.50
2019-02-24T04:53:58.855Z,53.60
2019-02-24T04:56:32.545Z,53.50
2019-02-24T04:59:05.965Z,53.50
2019-02-24T05:01:39.420Z,53.40
2019-02-24T05:04:12.847Z,53.40
2019-02-24T05:06:46.367Z,52.80
2019-02-24T05:09:19.793Z,53.10
2019-02-24T05:11:53.236Z,52.50
2019-02-24T05:14:26.673Z,52.90
2019-02-24T05:17:00.112Z,52.80
2019-02-24T05:19:33.542Z,52.80
2019-02-24T05:22:06.980Z,52.80
2019-02-24T05:24:40.478Z,52.70
2019-02-24T05:27:13.919Z,52.70
2019-02-24T05:29:47.351Z,52.60
2019-02-24T05:32:20.816Z,52.50
2019-02-24T05:34:54.245Z,52.40
2019-02-24T05:37:27.684Z,52.40
2019-02-24T05:40:01.115Z,52.60
2019-02-24T05:42:34.654Z,52.50
2019-02-24T05:45:08.148Z,52.60
2019-02-24T05:47:41.598Z,52.60
2019-02-24T05:50:15.029Z,52.60
2019-02-24T05:52:48.464Z,52.60
2019-02-24T05:55:21.902Z,52.80
2019-02-24T05:57:55.346Z,52.70
2019-02-24T06:00:28.839Z,52.90
2019-02-24T06:03:02.280Z,53.00
2019-02-24T06:05:35.716Z,53.20
2019-02-24T06:08:09.161Z,53.30
2019-02-24T06:10:42.595Z,53.30
2019-02-24T06:13:16.063Z,53.10
2019-02-24T06:15:49.488Z,53.30
2019-02-24T06:18:22.926Z,53.40
2019-02-24T06:20:56.342Z,53.40
2019-02-24T06:23:29.786Z,53.50
2019-02-24T06:26:03.214Z,53.50
2019-02-24T06:28:36.818Z,53.50
2019-02-24T06:31:10.236Z,53.50
2019-02-24T06:33:43.789Z,53.60
2019-02-24T06:36:17.241Z,53.60
2019-02-24T06:38:50.678Z,53.60
2019-02-24T06:41:24.110Z,53.50
2019-02-24T06:43:57.549Z,53.70
2019-02-24T06:46:30.976Z,53.50
2019-02-24T06:49:04.412Z,53.30
2019-02-24T06:51:37.845Z,53.40
2019-02-24T06:54:11.284Z,53.40
2019-02-24T06:56:44.714Z,53.30
2019-02-24T06:59:18.162Z,53.20
2019-02-24T07:01:51.576Z,52.70
2019-02-24T07:04:25.004Z,53.20
2019-02-24T07:06:58.436Z,52.90
2019-02-24T07:09:31.905Z,53.40
2019-02-24T07:12:06.292Z,53.50
2019-02-24T07:14:39.742Z,53.30
2019-02-24T07:17:13.174Z,53.30
2019-02-24T07:19:46.610Z,53.50
2019-02-24T07:22:20.040Z,53.30
2019-02-24T07:24:53.476Z,53.10
2019-02-24T07:27:28.438Z,53.10
2019-02-24T07:30:01.920Z,52.60
2019-02-24T07:32:35.359Z,52.90
2019-02-24T07:35:08.884Z,53.00
2019-02-24T07:37:42.329Z,52.90
2019-02-24T07:40:15.857Z,52.60
2019-02-24T07:42:49.280Z,53.10
2019-02-24T07:45:22.797Z,53.20
2019-02-24T07:47:56.236Z,53.00
2019-02-24T07:50:29.690Z,52.90
2019-02-24T07:53:03.116Z,52.80
2019-02-24T07:55:36.560Z,52.70
2019-02-24T07:58:09.993Z,52.50
2019-02-24T08:00:43.453Z,52.60
2019-02-24T08:03:16.864Z,52.40
2019-02-24T08:05:51.612Z,52.50
2019-02-24T08:08:25.022Z,52.30
2019-02-24T08:10:58.476Z,51.90
2019-02-24T08:13:31.891Z,52.10
2019-02-24T08:16:05.345Z,51.40
2019-02-24T08:18:38.768Z,50.40
2019-02-24T08:21:12.206Z,50.80
2019-02-24T08:23:45.630Z,50.50
2019-02-24T08:26:19.064Z,50.10
2019-02-24T08:28:52.484Z,49.80
2019-02-24T08:31:25.916Z,49.50
2019-02-24T08:33:59.336Z,49.10
2019-02-24T08:36:32.784Z,48.80
2019-02-24T08:39:06.193Z,48.60
2019-02-24T08:41:39.636Z,48.10
2019-02-24T08:44:13.060Z,47.30
2019-02-24T08:46:46.506Z,46.50
2019-02-24T08:49:19.912Z,45.90
2019-02-24T08:51:53.360Z,45.40
2019-02-24T08:54:26.771Z,45.00
2019-02-24T08:57:00.204Z,44.40
2019-02-24T08:59:33.630Z,44.00
2019-02-24T09:02:07.093Z,43.60
2019-02-24T09:04:40.508Z,43.70
2019-02-24T09:07:13.944Z,42.70
2019-02-24T09:09:47.371Z,42.30
2019-02-24T09:12:20.805Z,41.80
2019-02-24T09:14:54.229Z,41.60
2019-02-24T09:17:27.662Z,41.90
2019-02-24T09:20:01.095Z,41.00
2019-02-24T09:22:34.516Z,40.40
2019-02-24T09:25:08.714Z,40.10
2019-02-24T09:27:42.168Z,39.90
2019-02-24T09:30:15.583Z,39.50
2019-02-24T09:32:49.034Z,39.10
2019-02-24T09:35:22.448Z,38.90
2019-02-24T09:37:56.052Z,38.70
2019-02-24T09:40:29.472Z,38.40
2019-02-24T09:43:02.931Z,38.10
2019-02-24T09:45:36.352Z,37.70
2019-02-24T09:48:09.784Z,37.30
2019-02-24T09:50:43.204Z,37.00
2019-02-24T09:53:16.636Z,36.70
2019-02-24T09:55:50.058Z,36.40
2019-02-24T09:58:23.484Z,35.50
2019-02-24T10:00:56.904Z,35.70
2019-02-24T10:03:30.342Z,35.50
2019-02-24T10:06:03.764Z,35.10
2019-02-24T10:08:37.196Z,34.90
2019-02-24T10:11:10.620Z,34.60
2019-02-24T10:13:44.057Z,34.20
2019-02-24T10:16:17.484Z,34.40
2019-02-24T10:18:50.924Z,33.60
2019-02-24T10:21:24.400Z,33.30
2019-02-24T10:23:57.845Z,33.00
2019-02-24T10:26:31.265Z,32.70
2019-02-24T10:29:04.728Z,32.70
2019-02-24T10:31:38.163Z,32.70
2019-02-24T10:34:11.625Z,32.40
2019-02-24T10:36:45.054Z,32.30
2019-02-24T10:39:18.557Z,32.00
2019-02-24T10:41:53.686Z,31.90
2019-02-24T10:44:27.320Z,31.80
2019-02-24T10:47:02.258Z,31.80
2019-02-24T10:49:35.993Z,31.70
2019-02-24T10:52:09.400Z,31.60
2019-02-24T10:54:42.836Z,31.40
2019-02-24T10:57:16.319Z,31.20
2019-02-24T10:59:49.829Z,31.00
2019-02-24T11:02:23.246Z,30.60
2019-02-24T11:04:56.685Z,30.50
2019-02-24T11:07:30.107Z,30.20
2019-02-24T11:10:04.696Z,30.10
2019-02-24T11:12:38.221Z,30.00
2019-02-24T11:15:12.890Z,30.00
2019-02-24T11:17:46.305Z,29.80
2019-02-24T11:20:19.736Z,29.80
2019-02-24T11:22:53.168Z,29.60
2019-02-24T11:25:26.597Z,29.60
2019-02-24T11:28:00.024Z,29.50
2019-02-24T11:30:33.454Z,29.40
2019-02-24T11:33:06.869Z,29.70
2019-02-24T11:35:40.380Z,29.30
2019-02-24T11:38:13.800Z,29.50
2019-02-24T11:40:47.406Z,29.50
2019-02-24T11:43:20.824Z,29.20
2019-02-24T11:45:55.341Z,29.10
2019-02-24T11:48:28.754Z,29.10
2019-02-24T11:51:02.209Z,29.00
2019-02-24T11:53:35.696Z,28.90
2019-02-24T11:56:09.184Z,28.70
2019-02-24T11:58:42.600Z,28.60
2019-02-24T12:01:16.041Z,28.50
2019-02-24T12:03:49.452Z,28.30
2019-02-24T12:06:22.905Z,28.20
2019-02-24T12:09:04.871Z,27.50
2019-02-24T12:11:31.496Z,27.50
2019-02-24T12:14:04.921Z,27.50
2019-02-24T12:16:38.360Z,27.60
2019-02-24T12:19:11.782Z,27.60
2019-02-24T12:21:45.221Z,27.60
2019-02-24T12:24:18.656Z,27.40
2019-02-24T12:26:52.112Z,27.40
2019-02-24T12:29:25.526Z,27.40
2019-02-24T12:31:59.012Z,27.30
2019-02-24T12:34:32.427Z,27.20
2019-02-24T12:37:05.868Z,27.20
2019-02-24T12:39:39.292Z,27.10
2019-02-24T12:42:12.772Z,27.00
2019-02-24T12:44:46.193Z,26.40
2019-02-24T12:47:19.629Z,26.50
2019-02-24T12:49:53.052Z,25.60
2019-02-24T12:52:26.481Z,25.60
2019-02-24T12:54:59.921Z,25.90
2019-02-24T12:57:33.361Z,25.90
2019-02-24T13:00:11.728Z,26.10
2019-02-24T13:02:45.176Z,26.20
2019-02-24T13:05:19.082Z,26.20
2019-02-24T13:07:52.553Z,26.10
2019-02-24T13:10:25.980Z,26.00
2019-02-24T13:12:59.419Z,26.10
2019-02-24T13:15:32.824Z,25.80
2019-02-24T13:18:06.302Z,25.60
2019-02-24T13:20:39.724Z,25.30
2019-02-24T13:23:13.163Z,25.10
2019-02-24T13:25:46.593Z,25.00
2019-02-24T13:28:20.031Z,24.90
2019-02-24T13:30:53.465Z,24.60
2019-02-24T13:33:26.892Z,24.40
2019-02-24T13:36:00.342Z,24.30
2019-02-24T13:38:33.812Z,24.20
2019-02-24T13:41:07.509Z,24.10
2019-02-24T13:43:40.980Z,24.00
2019-02-24T13:46:14.405Z,24.10
2019-02-24T13:48:47.845Z,25.20
2019-02-24T13:51:21.277Z,25.70
2019-02-24T13:53:54.796Z,25.40
2019-02-24T13:56:28.253Z,25.30
2019-02-24T13:59:01.726Z,24.90
2019-02-24T14:01:35.144Z,24.90
2019-02-24T14:04:08.600Z,25.00
2019-02-24T14:06:42.056Z,25.50
2019-02-24T14:09:15.480Z,26.50
2019-02-24T14:11:48.904Z,26.80
2019-02-24T14:14:22.340Z,26.40
2019-02-24T14:16:55.760Z,26.30
2019-02-24T14:19:29.284Z,25.80
2019-02-24T14:22:02.735Z,25.50
2019-02-24T14:24:36.225Z,25.30
2019-02-24T14:27:10.952Z,25.10
2019-02-24T14:29:44.476Z,24.90
2019-02-24T14:32:17.917Z,24.60
2019-02-24T14:34:51.406Z,24.20
2019-02-24T14:37:44.169Z,24.10
2019-02-24T14:40:17.618Z,23.40
2019-02-24T14:42:51.040Z,23.80
2019-02-24T14:45:25.095Z,23.30
2019-02-24T14:47:58.548Z,23.00
2019-02-24T14:50:32.069Z,22.80
2019-02-24T14:53:05.488Z,22.80
2019-02-24T14:55:39.575Z,23.00
2019-02-24T14:58:13.126Z,23.10
2019-02-24T15:00:46.552Z,22.90
2019-02-24T15:03:19.972Z,22.40
2019-02-24T15:05:53.427Z,22.10
2019-02-24T15:08:26.910Z,21.80
2019-02-24T15:11:00.350Z,21.40
2019-02-24T15:13:33.768Z,21.10
2019-02-24T15:16:07.207Z,20.90
2019-02-24T15:18:40.708Z,20.60
2019-02-24T15:21:14.208Z,20.40
2019-02-24T15:23:47.636Z,20.20
2019-02-24T15:26:21.112Z,20.20
2019-02-24T15:28:54.608Z,20.10
2019-02-24T15:31:28.092Z,20.20
2019-02-24T15:34:01.508Z,20.20
2019-02-24T15:36:34.940Z,20.30
2019-02-24T15:39:08.832Z,20.30
2019-02-24T15:41:42.260Z,20.40
2019-02-24T15:44:15.681Z,20.50
2019-02-24T15:46:49.122Z,20.60
2019-02-24T15:49:22.546Z,20.70
2019-02-24T15:51:55.976Z,20.90
2019-02-24T15:54:29.402Z,21.10
2019-02-24T15:57:02.836Z,21.40
2019-02-24T15:59:36.256Z,21.70
2019-02-24T16:02:09.764Z,21.80
2019-02-24T16:04:43.184Z,21.90
2019-02-24T16:07:16.628Z,22.00
2019-02-24T16:09:50.057Z,22.20
2019-02-24T16:12:23.496Z,22.30
2019-02-24T16:14:56.915Z,22.50
2019-02-24T16:17:30.351Z,22.60
2019-02-24T16:20:06.117Z,22.80
2019-02-24T16:22:39.545Z,22.90
2019-02-24T16:25:12.960Z,23.00
2019-02-24T16:27:46.413Z,23.00
2019-02-24T16:30:19.844Z,23.00
2019-02-24T16:32:53.284Z,23.30
2019-02-24T16:35:26.708Z,23.90
2019-02-24T16:38:00.178Z,24.20
2019-02-24T16:40:33.592Z,25.00
2019-02-24T16:43:07.028Z,25.00
2019-02-24T16:45:40.454Z,25.20
2019-02-24T16:48:13.905Z,25.70
2019-02-24T16:50:47.341Z,26.10
2019-02-24T16:53:20.817Z,26.30
2019-02-24T16:55:54.290Z,26.70
2019-02-24T16:58:27.768Z,27.10
2019-02-24T17:01:01.200Z,27.30
2019-02-24T17:03:34.645Z,27.50
2019-02-24T17:06:08.073Z,28.10
2019-02-24T17:08:41.509Z,27.80
2019-02-24T17:11:14.944Z,28.00
2019-02-24T17:13:48.383Z,28.20
2019-02-24T17:16:21.796Z,28.40
2019-02-24T17:18:55.228Z,29.20
2019-02-24T17:21:28.648Z,29.40
2019-02-24T17:24:02.099Z,29.50
2019-02-24T17:26:35.524Z,29.70
2019-02-24T17:29:09.325Z,29.80
2019-02-24T17:31:42.741Z,30.00
2019-02-24T17:34:16.176Z,30.30
2019-02-24T17:36:49.593Z,30.60
2019-02-24T17:39:23.036Z,31.00
2019-02-24T17:41:56.454Z,31.00
2019-02-24T17:44:29.884Z,31.20
2019-02-24T17:47:03.306Z,31.30
2019-02-24T17:49:36.784Z,31.40
2019-02-24T17:52:10.209Z,31.30
2019-02-24T17:54:43.632Z,31.30
2019-02-24T17:57:17.072Z,31.30
2019-02-24T17:59:50.510Z,31.40
2019-02-24T18:02:23.948Z,31.60
2019-02-24T18:04:57.384Z,31.80
2019-02-24T18:07:30.800Z,32.10
2019-02-24T18:10:05.377Z,32.10
2019-02-24T18:12:38.800Z,32.10
2019-02-24T18:15:12.885Z,32.40
2019-02-24T18:17:46.301Z,32.50
2019-02-24T18:20:21.376Z,32.80
2019-02-24T18:22:54.812Z,32.90
2019-02-24T18:25:28.257Z,33.10
2019-02-24T18:28:01.678Z,33.20
2019-02-24T18:30:35.183Z,33.40
2019-02-24T18:33:08.620Z,33.50
2019-02-24T18:35:42.047Z,33.60
2019-02-24T18:38:15.470Z,33.80
2019-02-24T18:40:48.904Z,34.10
2019-02-24T18:43:22.333Z,34.30
2019-02-24T18:45:55.769Z,34.50
2019-02-24T18:48:29.188Z,34.70
2019-02-24T18:51:02.624Z,35.00
2019-02-24T18:53:36.063Z,35.20
2019-02-24T18:56:09.488Z,35.50
2019-02-24T18:58:43.001Z,35.70
2019-02-24T19:01:16.440Z,36.00
2019-02-24T19:03:57.383Z,36.30
2019-02-24T19:06:25.028Z,36.60
2019-02-24T19:08:58.452Z,36.90
2019-02-24T19:11:31.893Z,36.90
2019-02-24T19:14:05.308Z,37.00
2019-02-24T19:16:38.756Z,36.80
2019-02-24T19:19:12.180Z,36.80
2019-02-24T19:21:45.614Z,36.80
2019-02-24T19:24:19.036Z,36.90
2019-02-24T19:26:52.472Z,36.90
2019-02-24T19:29:25.892Z,37.00
2019-02-24T19:31:59.337Z,37.30
2019-02-24T19:34:32.765Z,37.30
2019-02-24T19:37:06.212Z,37.50
2019-02-24T19:39:39.627Z,37.60
2019-02-24T19:42:13.068Z,37.80
2019-02-24T19:44:46.484Z,37.90
2019-02-24T19:47:19.942Z,38.00
2019-02-24T19:49:53.364Z,38.10
2019-02-24T19:52:28.422Z,38.20
2019-02-24T19:55:01.953Z,38.30
2019-02-24T19:57:35.399Z,38.40
2019-02-24T20:00:22.816Z,38.50
2019-02-24T20:02:56.321Z,38.60
2019-02-24T20:05:29.751Z,38.70
2019-02-24T20:08:03.180Z,38.70
2019-02-24T20:10:36.977Z,38.90
2019-02-24T20:13:10.421Z,39.80
2019-02-24T20:15:43.852Z,39.70
2019-02-24T20:18:17.305Z,39.70
2019-02-24T20:20:50.733Z,39.70
2019-02-24T20:23:24.244Z,39.80
2019-02-24T20:25:57.664Z,39.90
2019-02-24T20:28:31.104Z,39.90
2019-02-24T20:31:04.531Z,39.90
2019-02-24T20:33:38.440Z,39.90
2019-02-24T20:36:11.867Z,40.00
2019-02-24T20:38:45.304Z,40.10
2019-02-24T20:41:18.728Z,40.00
2019-02-24T20:43:52.169Z,40.10
2019-02-24T20:46:25.604Z,40.10
2019-02-24T20:48:59.039Z,40.20
2019-02-24T20:51:32.465Z,40.10
2019-02-24T20:54:05.908Z,40.30
2019-02-24T20:56:39.336Z,40.50
2019-02-24T20:59:12.769Z,40.70
2019-02-24T21:01:46.202Z,40.70
2019-02-24T21:04:19.640Z,40.60
2019-02-24T21:06:53.071Z,40.70
2019-02-24T21:09:26.497Z,40.80
2019-02-24T21:11:59.929Z,40.90
2019-02-24T21:14:33.359Z,41.00
2019-02-24T21:17:06.784Z,40.90
2019-02-24T21:19:40.224Z,40.90
2019-02-24T21:22:13.645Z,41.10
2019-02-24T21:24:47.080Z,41.10
2019-02-24T21:27:20.512Z,41.30
2019-02-24T21:29:53.948Z,41.40
2019-02-24T21:32:27.364Z,41.20
2019-02-24T21:35:00.793Z,41.30
2019-02-24T21:37:34.216Z,41.20
2019-02-24T21:40:10.724Z,41.10
2019-02-24T21:42:44.216Z,41.40
2019-02-24T21:45:25.362Z,41.40
2019-02-24T21:47:58.780Z,41.30
2019-02-24T21:50:32.288Z,40.70
2019-02-24T21:53:05.712Z,41.90
2019-02-24T21:55:39.146Z,41.40
2019-02-24T21:58:12.560Z,42.00
2019-02-24T22:00:45.997Z,41.50
2019-02-24T22:03:19.415Z,41.50
2019-02-24T22:05:52.870Z,41.60
2019-02-24T22:08:26.284Z,41.60
2019-02-24T22:10:59.722Z,41.60
2019-02-24T22:13:33.153Z,41.70
2019-02-24T22:16:06.600Z,41.70
2019-02-24T22:18:40.024Z,41.80
2019-02-24T22:21:13.468Z,42.30
2019-02-24T22:23:47.823Z,42.00
2019-02-24T22:26:21.262Z,42.10
2019-02-24T22:28:54.680Z,42.30
2019-02-24T22:31:28.179Z,42.50
2019-02-24T22:34:01.597Z,42.70
2019-02-24T22:36:35.029Z,42.80
2019-02-24T22:39:08.457Z,42.50
2019-02-24T22:41:41.885Z,43.10
2019-02-24T22:44:15.336Z,43.00
2019-02-24T22:46:48.829Z,42.90
2019-02-24T22:49:22.256Z,42.90
2019-02-24T22:51:55.692Z,42.90
2019-02-24T22:54:29.148Z,43.00
2019-02-24T22:57:02.582Z,43.00
2019-02-24T22:59:36.000Z,43.20
2019-02-24T23:02:09.506Z,43.40
2019-02-24T23:04:42.927Z,43.50
2019-02-24T23:07:16.460Z,43.70
2019-02-24T23:09:49.884Z,43.80
2019-02-24T23:12:23.320Z,43.90
2019-02-24T23:14:56.736Z,44.10
2019-02-24T23:17:30.186Z,44.00
2019-02-24T23:20:05.276Z,44.00
2019-02-24T23:22:38.713Z,44.00
2019-02-24T23:25:12.208Z,44.10
2019-02-24T23:27:45.639Z,44.10
2019-02-24T23:30:19.060Z,43.90
2019-02-24T23:32:52.504Z,43.60
2019-02-24T23:35:25.924Z,44.20
2019-02-24T23:37:59.367Z,44.30
2019-02-24T23:40:32.786Z,44.40
2019-02-24T23:43:06.361Z,44.50
2019-02-24T23:45:39.784Z,44.60
2019-02-24T23:48:13.248Z,44.50
2019-02-24T23:50:46.670Z,45.20
2019-02-24T23:53:20.097Z,44.60
2019-02-24T23:55:53.521Z,44.60
2019-02-24T23:58:26.960Z,44.50
